createdAt,value
2017-06-08T00:00:12.024Z,0
2017-06-08T00:01:12.342Z,0
2017-06-08T00:02:12.666Z,0
2017-06-08T00:03:12.318Z,0
2017-06-08T00:04:12.137Z,0
2017-06-08T00:05:12.330Z,0
2017-06-08T00:06:11.985Z,0
2017-06-08T00:07:12.611Z,0
2017-06-08T00:08:12.307Z,0
2017-06-08T00:09:12.592Z,0
2017-06-08T00:10:12.586Z,0
2017-06-08T00:11:12.921Z,0
2017-06-08T00:12:12.576Z,0
2017-06-08T00:13:12.593Z,0
2017-06-08T00:14:12.897Z,0
2017-06-08T00:15:12.552Z,0
2017-06-08T00:16:12.224Z,0
2017-06-08T00:17:12.533Z,0
2017-06-08T00:18:12.522Z,0
2017-06-08T00:19:12.517Z,0
2017-06-08T00:20:12.509Z,0
2017-06-08T00:21:12.670Z,0
2017-06-08T00:22:12.175Z,0
2017-06-08T00:23:12.479Z,0
2017-06-08T00:24:12.812Z,0
2017-06-08T00:25:12.158Z,0
2017-06-08T00:26:12.816Z,0
2017-06-08T00:27:12.456Z,0
2017-06-08T00:28:12.468Z,0
2017-06-08T00:29:12.434Z,0
2017-06-08T00:30:12.422Z,0
2017-06-08T00:31:12.417Z,0
2017-06-08T00:32:12.414Z,0
2017-06-08T00:33:12.726Z,0
2017-06-08T00:34:12.408Z,0
2017-06-08T00:35:12.389Z,0
2017-06-08T00:36:11.734Z,0
2017-06-08T00:37:12.373Z,0
2017-06-08T00:38:12.436Z,0
2017-06-08T00:39:12.671Z,0
2017-06-08T00:40:12.359Z,0
2017-06-08T00:41:12.013Z,0
2017-06-08T00:42:11.677Z,0
2017-06-08T00:43:12.328Z,0
2017-06-08T00:44:11.985Z,0
2017-06-08T00:45:11.675Z,0
2017-06-08T00:46:11.988Z,0
2017-06-08T00:47:12.319Z,0
2017-06-08T00:48:12.273Z,0
2017-06-08T00:49:11.944Z,0
2017-06-08T00:50:12.583Z,0
2017-06-08T00:51:12.245Z,0
2017-06-08T00:52:12.585Z,0
2017-06-08T00:53:12.557Z,0
2017-06-08T00:54:12.234Z,0
2017-06-08T00:55:12.226Z,0
2017-06-08T00:56:12.245Z,0
2017-06-08T00:57:12.230Z,0
2017-06-08T00:58:12.198Z,0
2017-06-08T00:59:12.523Z,0
2017-06-08T01:00:12.176Z,0
2017-06-08T01:01:12.160Z,0
2017-06-08T01:02:12.177Z,0
2017-06-08T01:03:12.481Z,0
2017-06-08T01:04:12.504Z,0
2017-06-08T01:05:11.813Z,0
2017-06-08T01:06:12.163Z,0
2017-06-08T01:07:11.793Z,0
2017-06-08T01:08:12.417Z,0
2017-06-08T01:09:12.445Z,0
2017-06-08T01:10:12.079Z,0
2017-06-08T01:11:11.919Z,0
2017-06-08T01:12:11.744Z,0
2017-06-08T01:13:12.384Z,0
2017-06-08T01:14:12.387Z,0
2017-06-08T01:15:11.771Z,0
2017-06-08T01:16:12.377Z,0
2017-06-08T01:17:12.027Z,0
2017-06-08T01:18:12.019Z,0
2017-06-08T01:19:12.005Z,0
2017-06-08T01:20:12.001Z,0
2017-06-08T01:21:11.986Z,0
2017-06-08T01:22:12.451Z,0
2017-06-08T01:23:12.001Z,0
2017-06-08T01:24:11.657Z,0
2017-06-08T01:25:11.953Z,0
2017-06-08T01:26:11.965Z,0
2017-06-08T01:27:11.938Z,0
2017-06-08T01:28:11.612Z,0
2017-06-08T01:29:12.240Z,0
2017-06-08T01:30:12.252Z,0
2017-06-08T01:31:11.896Z,0
2017-06-08T01:32:11.563Z,0
2017-06-08T01:33:11.581Z,0
2017-06-08T01:34:11.547Z,0
2017-06-08T01:35:12.185Z,0
2017-06-08T01:36:12.178Z,0
2017-06-08T01:37:11.543Z,0
2017-06-08T01:38:12.206Z,0
2017-06-08T01:39:11.827Z,0
2017-06-08T01:40:11.509Z,0
2017-06-08T01:41:11.914Z,0
2017-06-08T01:42:11.489Z,0
2017-06-08T01:43:12.114Z,0
2017-06-08T01:44:11.791Z,0
2017-06-08T01:45:11.467Z,0
2017-06-08T01:46:12.099Z,0
2017-06-08T01:47:12.100Z,0
2017-06-08T01:48:12.094Z,0
2017-06-08T01:49:12.080Z,0
2017-06-08T01:50:11.462Z,0
2017-06-08T01:51:11.556Z,0
2017-06-08T01:52:11.387Z,0
2017-06-08T01:53:11.698Z,0
2017-06-08T01:54:11.409Z,0
2017-06-08T01:55:12.010Z,0
2017-06-08T01:56:12.142Z,0
2017-06-08T01:57:12.006Z,0
2017-06-08T01:58:11.344Z,0
2017-06-08T01:59:11.002Z,0
2017-06-08T02:00:11.343Z,0
2017-06-08T02:01:11.964Z,0
2017-06-08T02:02:11.302Z,0
2017-06-08T02:03:11.634Z,0
2017-06-08T02:04:11.607Z,0
2017-06-08T02:05:11.280Z,0
2017-06-08T02:06:11.260Z,0
2017-06-08T02:07:11.412Z,0
2017-06-08T02:08:11.597Z,0
2017-06-08T02:09:11.277Z,0
2017-06-08T02:10:11.870Z,0
2017-06-08T02:11:11.533Z,0
2017-06-08T02:12:11.534Z,0
2017-06-08T02:13:10.910Z,0
2017-06-08T02:14:11.526Z,0
2017-06-08T02:15:11.518Z,0
2017-06-08T02:16:11.528Z,0
2017-06-08T02:17:11.962Z,4
2017-06-08T02:18:11.812Z,4
2017-06-08T02:19:11.823Z,4
2017-06-08T02:20:11.155Z,0
2017-06-08T02:21:11.442Z,0
2017-06-08T02:22:11.443Z,0
2017-06-08T02:23:11.428Z,4
2017-06-08T02:24:11.421Z,4
2017-06-08T02:25:11.755Z,4
2017-06-08T02:26:11.742Z,4
2017-06-08T02:27:11.739Z,4
2017-06-08T02:28:11.717Z,8
2017-06-08T02:29:11.740Z,4
2017-06-08T02:30:11.376Z,8
2017-06-08T02:31:11.369Z,4
2017-06-08T02:32:11.042Z,8
2017-06-08T02:33:11.018Z,8
2017-06-08T02:34:11.329Z,12
2017-06-08T02:35:11.663Z,12
2017-06-08T02:36:11.650Z,12
2017-06-08T02:37:11.319Z,16
2017-06-08T02:38:11.317Z,20
2017-06-08T02:39:11.623Z,16
2017-06-08T02:40:11.629Z,20
2017-06-08T02:41:11.271Z,24
2017-06-08T02:42:10.932Z,28
2017-06-08T02:43:11.596Z,32
2017-06-08T02:44:10.952Z,32
2017-06-08T02:45:11.245Z,40
2017-06-08T02:46:11.542Z,44
2017-06-08T02:47:11.541Z,48
2017-06-08T02:48:11.214Z,56
2017-06-08T02:49:11.537Z,60
2017-06-08T02:50:11.184Z,68
2017-06-08T02:51:10.527Z,76
2017-06-08T02:52:10.855Z,84
2017-06-08T02:53:10.841Z,88
2017-06-08T02:54:11.487Z,96
2017-06-08T02:55:10.857Z,100
2017-06-08T02:56:11.466Z,108
2017-06-08T02:57:11.480Z,112
2017-06-08T02:58:11.124Z,120
2017-06-08T02:59:11.442Z,128
2017-06-08T03:00:11.104Z,136
2017-06-08T03:01:11.460Z,144
2017-06-08T03:02:11.117Z,152
2017-06-08T03:03:10.424Z,160
2017-06-08T03:04:10.750Z,172
2017-06-08T03:05:11.392Z,184
2017-06-08T03:06:10.727Z,200
2017-06-08T03:07:11.031Z,216
2017-06-08T03:08:11.046Z,232
2017-06-08T03:09:11.360Z,244
2017-06-08T03:10:10.692Z,260
2017-06-08T03:11:11.031Z,268
2017-06-08T03:12:11.321Z,284
2017-06-08T03:13:10.332Z,292
2017-06-08T03:14:10.972Z,308
2017-06-08T03:15:10.981Z,324
2017-06-08T03:16:10.646Z,340
2017-06-08T03:17:10.614Z,352
2017-06-08T03:18:10.929Z,368
2017-06-08T03:19:10.956Z,388
2017-06-08T03:20:11.390Z,404
2017-06-08T03:21:10.932Z,420
2017-06-08T03:22:10.254Z,432
2017-06-08T03:23:11.217Z,444
2017-06-08T03:24:10.577Z,456
2017-06-08T03:25:10.902Z,468
2017-06-08T03:26:10.872Z,480
2017-06-08T03:27:10.876Z,496
2017-06-08T03:28:10.842Z,512
2017-06-08T03:29:10.555Z,528
2017-06-08T03:30:11.150Z,544
2017-06-08T03:31:10.493Z,556
2017-06-08T03:32:10.807Z,568
2017-06-08T03:33:10.472Z,576
2017-06-08T03:34:10.817Z,584
2017-06-08T03:35:10.143Z,596
2017-06-08T03:36:10.472Z,620
2017-06-08T03:37:10.440Z,648
2017-06-08T03:38:10.429Z,680
2017-06-08T03:39:11.085Z,716
2017-06-08T03:40:10.735Z,752
2017-06-08T03:41:11.051Z,776
2017-06-08T03:42:11.040Z,800
2017-06-08T03:43:10.704Z,824
2017-06-08T03:44:10.376Z,848
2017-06-08T03:45:10.707Z,884
2017-06-08T03:46:10.682Z,932
2017-06-08T03:47:10.357Z,988
2017-06-08T03:48:10.994Z,1040
2017-06-08T03:49:10.014Z,1092
2017-06-08T03:50:10.645Z,1168
2017-06-08T03:51:10.308Z,1240
2017-06-08T03:52:10.620Z,1268
2017-06-08T03:53:10.958Z,1280
2017-06-08T03:54:10.286Z,1268
2017-06-08T03:55:09.965Z,1248
2017-06-08T03:56:10.916Z,1260
2017-06-08T03:57:10.261Z,1288
2017-06-08T03:58:10.588Z,1328
2017-06-08T03:59:10.581Z,1344
2017-06-08T04:00:09.910Z,1380
2017-06-08T04:01:10.551Z,1436
2017-06-08T04:02:10.859Z,1500
2017-06-08T04:03:10.557Z,1580
2017-06-08T04:04:10.197Z,1656
2017-06-08T04:05:10.852Z,1724
2017-06-08T04:06:10.519Z,1808
2017-06-08T04:07:10.845Z,1932
2017-06-08T04:08:10.492Z,2092
2017-06-08T04:09:10.806Z,2252
2017-06-08T04:10:10.937Z,2396
2017-06-08T04:11:10.456Z,2516
2017-06-08T04:12:10.765Z,2624
2017-06-08T04:13:10.448Z,2684
2017-06-08T04:14:10.448Z,2712
2017-06-08T04:15:10.098Z,2780
2017-06-08T04:16:10.429Z,2852
2017-06-08T04:17:10.109Z,2924
2017-06-08T04:18:10.389Z,3004
2017-06-08T04:19:10.426Z,3124
2017-06-08T04:20:10.074Z,3320
2017-06-08T04:21:10.046Z,3536
2017-06-08T04:22:10.362Z,3736
2017-06-08T04:23:10.706Z,3940
2017-06-08T04:24:10.073Z,4092
2017-06-08T04:25:10.031Z,4212
2017-06-08T04:26:10.012Z,4364
2017-06-08T04:27:10.794Z,4504
2017-06-08T04:28:10.334Z,4652
2017-06-08T04:29:09.974Z,4792
2017-06-08T04:30:10.304Z,4880
2017-06-08T04:31:10.282Z,4972
2017-06-08T04:32:10.595Z,5032
2017-06-08T04:33:09.963Z,5068
2017-06-08T04:34:09.936Z,5052
2017-06-08T04:35:10.308Z,5072
2017-06-08T04:36:10.569Z,5200
2017-06-08T04:37:10.585Z,5208
2017-06-08T04:38:10.252Z,5204
2017-06-08T04:39:10.540Z,5140
2017-06-08T04:40:10.211Z,5156
2017-06-08T04:41:09.880Z,5160
2017-06-08T04:42:10.197Z,5160
2017-06-08T04:43:09.862Z,5372
2017-06-08T04:44:10.183Z,5536
2017-06-08T04:45:09.848Z,5608
2017-06-08T04:46:10.157Z,5688
2017-06-08T04:47:10.154Z,5760
2017-06-08T04:48:09.510Z,5840
2017-06-08T04:49:10.164Z,5936
2017-06-08T04:50:09.841Z,6060
2017-06-08T04:51:10.124Z,6168
2017-06-08T04:52:10.455Z,6248
2017-06-08T04:53:09.799Z,6260
2017-06-08T04:54:10.420Z,6204
2017-06-08T04:55:09.449Z,6216
2017-06-08T04:56:09.770Z,6360
2017-06-08T04:57:09.775Z,6572
2017-06-08T04:58:10.418Z,6828
2017-06-08T04:59:10.067Z,7132
2017-06-08T05:00:10.075Z,7444
2017-06-08T05:01:09.752Z,7724
2017-06-08T05:02:09.728Z,8000
2017-06-08T05:03:10.356Z,8268
2017-06-08T05:04:09.407Z,8484
2017-06-08T05:05:09.708Z,8664
2017-06-08T05:06:10.061Z,8784
2017-06-08T05:07:10.037Z,8888
2017-06-08T05:08:09.688Z,8896
2017-06-08T05:09:10.004Z,8872
2017-06-08T05:10:10.010Z,8864
2017-06-08T05:11:09.677Z,8860
2017-06-08T05:12:09.659Z,8784
2017-06-08T05:13:09.971Z,8616
2017-06-08T05:14:09.651Z,8408
2017-06-08T05:15:09.957Z,8216
2017-06-08T05:16:10.424Z,8056
2017-06-08T05:17:09.991Z,8008
2017-06-08T05:18:10.285Z,8020
2017-06-08T05:19:10.270Z,8072
2017-06-08T05:20:09.934Z,8124
2017-06-08T05:21:09.986Z,8152
2017-06-08T05:22:09.992Z,8124
2017-06-08T05:23:09.909Z,8084
2017-06-08T05:24:09.584Z,8108
2017-06-08T05:25:10.252Z,8136
2017-06-08T05:26:09.591Z,8236
2017-06-08T05:27:10.358Z,8428
2017-06-08T05:28:10.201Z,8676
2017-06-08T05:29:09.552Z,8984
2017-06-08T05:30:09.903Z,9292
2017-06-08T05:31:10.185Z,9480
2017-06-08T05:32:09.567Z,9580
2017-06-08T05:33:10.173Z,9640
2017-06-08T05:34:09.527Z,9740
2017-06-08T05:35:10.170Z,9696
2017-06-08T05:36:10.155Z,9676
2017-06-08T05:37:09.850Z,9948
2017-06-08T05:38:10.307Z,10224
2017-06-08T05:39:09.824Z,10372
2017-06-08T05:40:09.491Z,10032
2017-06-08T05:41:10.139Z,9988
2017-06-08T05:42:09.483Z,9992
2017-06-08T05:43:09.830Z,10192
2017-06-08T05:44:09.795Z,10288
2017-06-08T05:45:09.478Z,10556
2017-06-08T05:46:09.782Z,10980
2017-06-08T05:47:09.788Z,11520
2017-06-08T05:48:10.122Z,11636
2017-06-08T05:49:10.108Z,11876
2017-06-08T05:50:10.085Z,11944
2017-06-08T05:51:09.434Z,12016
2017-06-08T05:52:10.096Z,12004
2017-06-08T05:53:09.424Z,12032
2017-06-08T05:54:10.065Z,12080
2017-06-08T05:55:09.562Z,12176
2017-06-08T05:56:09.744Z,12320
2017-06-08T05:57:09.728Z,12560
2017-06-08T05:58:09.397Z,12800
2017-06-08T05:59:09.735Z,12988
2017-06-08T06:00:09.711Z,13132
2017-06-08T06:01:09.386Z,13240
2017-06-08T06:02:10.041Z,13248
2017-06-08T06:03:09.697Z,13224
2017-06-08T06:04:09.751Z,13264
2017-06-08T06:05:09.706Z,13352
2017-06-08T06:06:09.844Z,13328
2017-06-08T06:07:09.377Z,13508
2017-06-08T06:08:09.711Z,13664
2017-06-08T06:09:09.351Z,14116
2017-06-08T06:10:09.353Z,14120
2017-06-08T06:11:09.982Z,14068
2017-06-08T06:12:09.662Z,14092
2017-06-08T06:13:09.983Z,14172
2017-06-08T06:14:09.683Z,14168
2017-06-08T06:15:09.969Z,14192
2017-06-08T06:16:09.989Z,14240
2017-06-08T06:17:09.647Z,14312
2017-06-08T06:18:09.960Z,14228
2017-06-08T06:19:09.637Z,14168
2017-06-08T06:20:09.639Z,13876
2017-06-08T06:21:09.945Z,13604
2017-06-08T06:22:09.326Z,13428
2017-06-08T06:23:09.642Z,13396
2017-06-08T06:24:08.985Z,13360
2017-06-08T06:25:09.932Z,13292
2017-06-08T06:26:09.308Z,13188
2017-06-08T06:27:09.603Z,13052
2017-06-08T06:28:09.444Z,12868
2017-06-08T06:29:09.639Z,12808
2017-06-08T06:30:09.277Z,12764
2017-06-08T06:31:08.958Z,12620
2017-06-08T06:32:09.907Z,12544
2017-06-08T06:33:09.922Z,12508
2017-06-08T06:34:09.928Z,13072
2017-06-08T06:35:09.280Z,13764
2017-06-08T06:36:09.915Z,16896
2017-06-08T06:37:09.931Z,18432
2017-06-08T06:38:08.941Z,31392
2017-06-08T06:39:09.576Z,40704
2017-06-08T06:40:09.570Z,42432
2017-06-08T06:41:09.566Z,47104
2017-06-08T06:42:09.243Z,48064
2017-06-08T06:43:09.564Z,49792
2017-06-08T06:44:09.709Z,50976
2017-06-08T06:45:09.557Z,50272
2017-06-08T06:46:09.575Z,47456
2017-06-08T06:47:09.873Z,47424
2017-06-08T06:48:09.874Z,47968
2017-06-08T06:49:09.866Z,43744
2017-06-08T06:50:09.869Z,45632
2017-06-08T06:51:09.881Z,53504
2017-06-08T06:52:09.545Z,54528
2017-06-08T06:53:09.551Z,52832
2017-06-08T06:54:09.543Z,51872
2017-06-08T06:55:09.702Z,53824
2017-06-08T06:56:08.902Z,51680
2017-06-08T06:57:09.576Z,46880
2017-06-08T06:58:09.572Z,39264
2017-06-08T06:59:09.223Z,38944
2017-06-08T07:00:09.568Z,39744
2017-06-08T07:01:09.550Z,47552
2017-06-08T07:02:09.913Z,49696
2017-06-08T07:03:09.240Z,49696
2017-06-08T07:04:09.874Z,48704
2017-06-08T07:05:09.558Z,48032
2017-06-08T07:06:09.721Z,50880
2017-06-08T07:07:09.885Z,53984
2017-06-08T07:08:09.896Z,54720
2017-06-08T07:09:09.248Z,54816
2017-06-08T07:10:09.925Z,55552
2017-06-08T07:11:09.899Z,57824
2017-06-08T07:12:09.900Z,60064
2017-06-08T07:13:09.606Z,57856
2017-06-08T07:14:09.588Z,57568
2017-06-08T07:15:09.032Z,56352
2017-06-08T07:16:09.597Z,55584
2017-06-08T07:17:09.264Z,57184
2017-06-08T07:18:09.680Z,56544
2017-06-08T07:19:09.600Z,56128
2017-06-08T07:20:09.276Z,58080
2017-06-08T07:21:09.277Z,56192
2017-06-08T07:22:09.947Z,34496
2017-06-08T07:23:10.148Z,47040
2017-06-08T07:24:09.609Z,49536
2017-06-08T07:25:09.939Z,45728
2017-06-08T07:26:09.658Z,41088
2017-06-08T07:27:09.629Z,35648
2017-06-08T07:28:09.303Z,36192
2017-06-08T07:29:09.969Z,44224
2017-06-08T07:30:09.634Z,56288
2017-06-08T07:31:09.656Z,56192
2017-06-08T07:32:08.996Z,51328
2017-06-08T07:33:09.326Z,45056
2017-06-08T07:34:09.659Z,50048
2017-06-08T07:35:09.659Z,56096
2017-06-08T07:36:09.652Z,53280
2017-06-08T07:37:10.002Z,52960
2017-06-08T07:38:09.685Z,53376
2017-06-08T07:39:09.671Z,51872
2017-06-08T07:40:09.365Z,40992
2017-06-08T07:41:09.674Z,48928
2017-06-08T07:42:09.371Z,51328
2017-06-08T07:43:09.358Z,51904
2017-06-08T07:44:10.008Z,53536
2017-06-08T07:45:09.707Z,54752
2017-06-08T07:46:09.701Z,55808
2017-06-08T07:47:09.380Z,55680
2017-06-08T07:48:10.024Z,40320
2017-06-08T07:49:09.407Z,20256
2017-06-08T07:50:09.857Z,8652
2017-06-08T07:51:09.721Z,8144
2017-06-08T07:52:09.735Z,7588
2017-06-08T07:53:09.746Z,6856
2017-06-08T07:54:10.053Z,9784
2017-06-08T07:55:10.056Z,9436
2017-06-08T07:56:09.419Z,9152
2017-06-08T07:57:09.441Z,9216
2017-06-08T07:58:10.084Z,10092
2017-06-08T07:59:09.753Z,10672
2017-06-08T08:00:10.095Z,9820
2017-06-08T08:01:09.938Z,9664
2017-06-08T08:02:09.769Z,10232
2017-06-08T08:03:09.450Z,9452
2017-06-08T08:04:10.105Z,8980
2017-06-08T08:05:10.113Z,9252
2017-06-08T08:06:09.821Z,9996
2017-06-08T08:07:09.510Z,10640
2017-06-08T08:08:09.473Z,9620
2017-06-08T08:09:09.485Z,7760
2017-06-08T08:10:09.486Z,7080
2017-06-08T08:11:09.482Z,8124
2017-06-08T08:12:10.128Z,8556
2017-06-08T08:13:09.487Z,8664
2017-06-08T08:14:09.809Z,8960
2017-06-08T08:15:09.809Z,9104
2017-06-08T08:16:10.168Z,8052
2017-06-08T08:17:09.839Z,9084
2017-06-08T08:18:09.525Z,10396
2017-06-08T08:19:09.816Z,10628
2017-06-08T08:20:09.823Z,11388
2017-06-08T08:21:10.155Z,11248
2017-06-08T08:22:09.820Z,10768
2017-06-08T08:23:10.292Z,11144
2017-06-08T08:24:09.850Z,12716
2017-06-08T08:25:09.833Z,13356
2017-06-08T08:26:09.837Z,12520
2017-06-08T08:27:09.828Z,11184
2017-06-08T08:28:09.825Z,10372
2017-06-08T08:29:09.831Z,11344
2017-06-08T08:30:09.838Z,12036
2017-06-08T08:31:09.828Z,10972
2017-06-08T08:32:09.823Z,10856
2017-06-08T08:33:09.508Z,10208
2017-06-08T08:34:09.370Z,10732
2017-06-08T08:35:09.827Z,11172
2017-06-08T08:36:09.830Z,10776
2017-06-08T08:37:09.526Z,11160
2017-06-08T08:38:09.829Z,10524
2017-06-08T08:39:09.852Z,10428
2017-06-08T08:40:10.155Z,9996
2017-06-08T08:41:09.840Z,9960
2017-06-08T08:42:09.845Z,10220
2017-06-08T08:43:09.851Z,11028
2017-06-08T08:44:09.836Z,11172
2017-06-08T08:45:09.989Z,9392
2017-06-08T08:46:09.507Z,9836
2017-06-08T08:47:09.834Z,10296
2017-06-08T08:48:09.504Z,10120
2017-06-08T08:49:09.839Z,10168
2017-06-08T08:50:10.156Z,10148
2017-06-08T08:51:10.163Z,9656
2017-06-08T08:52:10.150Z,8712
2017-06-08T08:53:09.520Z,8604
2017-06-08T08:54:09.517Z,8424
2017-06-08T08:55:09.503Z,8212
2017-06-08T08:56:09.981Z,8176
2017-06-08T08:57:09.841Z,7904
2017-06-08T08:58:09.819Z,8096
2017-06-08T08:59:09.512Z,8920
2017-06-08T09:00:10.146Z,8584
2017-06-08T09:01:09.826Z,7796
2017-06-08T09:02:09.822Z,7436
2017-06-08T09:03:09.510Z,7932
2017-06-08T09:04:09.819Z,8208
2017-06-08T09:05:09.819Z,7256
2017-06-08T09:06:09.835Z,8096
2017-06-08T09:07:09.824Z,8744
2017-06-08T09:08:10.143Z,8752
2017-06-08T09:09:10.133Z,9128
2017-06-08T09:10:10.173Z,9948
2017-06-08T09:11:10.135Z,10832
2017-06-08T09:12:10.134Z,10504
2017-06-08T09:13:09.965Z,10608
2017-06-08T09:14:09.859Z,10852
2017-06-08T09:15:09.852Z,11048
2017-06-08T09:16:09.847Z,11592
2017-06-08T09:17:09.486Z,11964
2017-06-08T09:18:09.834Z,12232
2017-06-08T09:19:09.810Z,12400
2017-06-08T09:20:09.513Z,12724
2017-06-08T09:21:10.144Z,12896
2017-06-08T09:22:10.154Z,13208
2017-06-08T09:23:10.155Z,13492
2017-06-08T09:24:10.002Z,13604
2017-06-08T09:25:09.506Z,13604
2017-06-08T09:26:09.806Z,13704
2017-06-08T09:27:09.890Z,13980
2017-06-08T09:28:09.814Z,14240
2017-06-08T09:29:09.807Z,14288
2017-06-08T09:30:10.129Z,14580
2017-06-08T09:31:09.820Z,14812
2017-06-08T09:32:10.131Z,15004
2017-06-08T09:33:09.163Z,15272
2017-06-08T09:34:09.819Z,15436
2017-06-08T09:35:09.955Z,15640
2017-06-08T09:36:09.802Z,15940
2017-06-08T09:37:09.817Z,16352
2017-06-08T09:38:09.493Z,16512
2017-06-08T09:39:10.136Z,16672
2017-06-08T09:40:09.195Z,16800
2017-06-08T09:41:09.481Z,16864
2017-06-08T09:42:09.810Z,16960
2017-06-08T09:43:09.825Z,17024
2017-06-08T09:44:09.478Z,16992
2017-06-08T09:45:09.830Z,17024
2017-06-08T09:46:09.631Z,17056
2017-06-08T09:47:09.476Z,17120
2017-06-08T09:48:09.805Z,17248
2017-06-08T09:49:09.482Z,17504
2017-06-08T09:50:09.801Z,17824
2017-06-08T09:51:10.147Z,18336
2017-06-08T09:52:10.162Z,18880
2017-06-08T09:53:10.122Z,19456
2017-06-08T09:54:10.133Z,19904
2017-06-08T09:55:09.491Z,20192
2017-06-08T09:56:09.477Z,20544
2017-06-08T09:57:09.639Z,20800
2017-06-08T09:58:09.815Z,20928
2017-06-08T09:59:09.477Z,20864
2017-06-08T10:00:09.480Z,20608
2017-06-08T10:01:09.804Z,20128
2017-06-08T10:02:09.824Z,19456
2017-06-08T10:03:09.803Z,19008
2017-06-08T10:04:09.852Z,18528
2017-06-08T10:05:09.807Z,18144
2017-06-08T10:06:09.821Z,17888
2017-06-08T10:07:09.167Z,17568
2017-06-08T10:08:09.648Z,17088
2017-06-08T10:09:09.822Z,16512
2017-06-08T10:10:09.492Z,15848
2017-06-08T10:11:09.476Z,15224
2017-06-08T10:12:09.821Z,14656
2017-06-08T10:13:10.125Z,14272
2017-06-08T10:14:09.807Z,14028
2017-06-08T10:15:10.165Z,13832
2017-06-08T10:16:09.822Z,13660
2017-06-08T10:17:10.142Z,13576
2017-06-08T10:18:09.815Z,13504
2017-06-08T10:19:10.276Z,13448
2017-06-08T10:20:09.512Z,13376
2017-06-08T10:21:09.511Z,13280
2017-06-08T10:22:09.856Z,13152
2017-06-08T10:23:09.160Z,13068
2017-06-08T10:24:09.808Z,13060
2017-06-08T10:25:10.129Z,13104
2017-06-08T10:26:09.163Z,13216
2017-06-08T10:27:09.813Z,13312
2017-06-08T10:28:09.501Z,13408
2017-06-08T10:29:09.821Z,13496
2017-06-08T10:30:09.975Z,13504
2017-06-08T10:31:09.808Z,13432
2017-06-08T10:32:10.133Z,13320
2017-06-08T10:33:09.809Z,13156
2017-06-08T10:34:09.506Z,12924
2017-06-08T10:35:09.811Z,12640
2017-06-08T10:36:09.812Z,12292
2017-06-08T10:37:09.833Z,11880
2017-06-08T10:38:09.811Z,11424
2017-06-08T10:39:09.807Z,10936
2017-06-08T10:40:09.513Z,10448
2017-06-08T10:41:09.961Z,9944
2017-06-08T10:42:10.148Z,9464
2017-06-08T10:43:09.507Z,9004
2017-06-08T10:44:13.159Z,8488
2017-06-08T10:45:09.803Z,8012
2017-06-08T10:46:09.804Z,7584
2017-06-08T10:47:09.834Z,7220
2017-06-08T10:48:09.826Z,6916
2017-06-08T10:49:10.130Z,6724
2017-06-08T10:50:10.126Z,6444
2017-06-08T10:51:09.487Z,6180
2017-06-08T10:52:09.953Z,5976
2017-06-08T10:53:09.815Z,6100
2017-06-08T10:54:09.492Z,6500
2017-06-08T10:55:09.813Z,7256
2017-06-08T10:56:10.134Z,7856
2017-06-08T10:57:09.812Z,7540
2017-06-08T10:58:09.504Z,6824
2017-06-08T10:59:09.489Z,5792
2017-06-08T11:00:10.130Z,5216
2017-06-08T11:01:09.808Z,4904
2017-06-08T11:02:10.148Z,4624
2017-06-08T11:03:10.280Z,4440
2017-06-08T11:04:09.165Z,4400
2017-06-08T11:05:09.812Z,4408
2017-06-08T11:06:09.829Z,4376
2017-06-08T11:07:09.836Z,4316
2017-06-08T11:08:09.510Z,4312
2017-06-08T11:09:09.509Z,4244
2017-06-08T11:10:09.822Z,4176
2017-06-08T11:11:09.807Z,4164
2017-06-08T11:12:09.825Z,4116
2017-06-08T11:13:09.489Z,4112
2017-06-08T11:14:09.637Z,4180
2017-06-08T11:15:09.811Z,4232
2017-06-08T11:16:09.831Z,4308
2017-06-08T11:17:10.126Z,4436
2017-06-08T11:18:09.815Z,4584
2017-06-08T11:19:10.143Z,4784
2017-06-08T11:20:09.809Z,5092
2017-06-08T11:21:10.127Z,5192
2017-06-08T11:22:09.820Z,5608
2017-06-08T11:23:09.484Z,6228
2017-06-08T11:24:09.840Z,6980
2017-06-08T11:25:09.317Z,7336
2017-06-08T11:26:09.479Z,7536
2017-06-08T11:27:10.132Z,7800
2017-06-08T11:28:09.814Z,7912
2017-06-08T11:29:09.820Z,8340
2017-06-08T11:30:09.828Z,8612
2017-06-08T11:31:09.477Z,9128
2017-06-08T11:32:09.808Z,9376
2017-06-08T11:33:09.524Z,9840
2017-06-08T11:34:10.158Z,10256
2017-06-08T11:35:09.486Z,10608
2017-06-08T11:36:10.344Z,11116
2017-06-08T11:37:09.803Z,11584
2017-06-08T11:38:09.806Z,11996
2017-06-08T11:39:09.803Z,12460
2017-06-08T11:40:09.801Z,12584
2017-06-08T11:41:09.487Z,12592
2017-06-08T11:42:10.118Z,12444
2017-06-08T11:43:09.834Z,12176
2017-06-08T11:44:09.820Z,11848
2017-06-08T11:45:09.485Z,11632
2017-06-08T11:46:09.483Z,12064
2017-06-08T11:47:09.827Z,12548
2017-06-08T11:48:09.484Z,13044
2017-06-08T11:49:09.485Z,13364
2017-06-08T11:50:10.134Z,13580
2017-06-08T11:51:09.534Z,13848
2017-06-08T11:52:10.146Z,14068
2017-06-08T11:53:09.809Z,13864
2017-06-08T11:54:09.819Z,13284
2017-06-08T11:55:09.822Z,12404
2017-06-08T11:56:09.840Z,11436
2017-06-08T11:57:10.133Z,10516
2017-06-08T11:58:10.286Z,9492
2017-06-08T11:59:10.143Z,8452
2017-06-08T12:00:09.831Z,7672
2017-06-08T12:01:09.510Z,6916
2017-06-08T12:02:09.175Z,6196
2017-06-08T12:03:09.829Z,5564
2017-06-08T12:04:09.504Z,5344
2017-06-08T12:05:10.151Z,5472
2017-06-08T12:06:09.822Z,5564
2017-06-08T12:07:10.148Z,5652
2017-06-08T12:08:09.522Z,5672
2017-06-08T12:09:09.657Z,5720
2017-06-08T12:10:10.141Z,5772
2017-06-08T12:11:10.176Z,5780
2017-06-08T12:12:10.185Z,5656
2017-06-08T12:13:09.544Z,5508
2017-06-08T12:14:09.834Z,5388
2017-06-08T12:15:09.868Z,5272
2017-06-08T12:16:09.695Z,5148
2017-06-08T12:17:09.855Z,5044
2017-06-08T12:18:09.861Z,4888
2017-06-08T12:19:09.846Z,4716
2017-06-08T12:20:10.322Z,4548
2017-06-08T12:21:09.838Z,4400
2017-06-08T12:22:10.150Z,4300
2017-06-08T12:23:09.866Z,4228
2017-06-08T12:24:09.507Z,4192
2017-06-08T12:25:09.834Z,4184
2017-06-08T12:26:09.853Z,4196
2017-06-08T12:27:09.510Z,4204
2017-06-08T12:28:10.152Z,4216
2017-06-08T12:29:09.512Z,4220
2017-06-08T12:30:09.572Z,4208
2017-06-08T12:31:10.336Z,4184
2017-06-08T12:32:09.881Z,4160
2017-06-08T12:33:09.193Z,4156
2017-06-08T12:34:09.530Z,4020
2017-06-08T12:35:09.516Z,3900
2017-06-08T12:36:09.855Z,3796
2017-06-08T12:37:09.872Z,3584
2017-06-08T12:38:09.840Z,3628
2017-06-08T12:39:09.518Z,3560
2017-06-08T12:40:09.854Z,3424
2017-06-08T12:41:09.840Z,3344
2017-06-08T12:42:09.351Z,3320
2017-06-08T12:43:09.847Z,3268
2017-06-08T12:44:09.517Z,3224
2017-06-08T12:45:10.157Z,3184
2017-06-08T12:46:09.839Z,3140
2017-06-08T12:47:09.836Z,3088
2017-06-08T12:48:09.855Z,3072
2017-06-08T12:49:09.541Z,3040
2017-06-08T12:50:09.839Z,3020
2017-06-08T12:51:09.861Z,3028
2017-06-08T12:52:09.844Z,3024
2017-06-08T12:53:09.987Z,3016
2017-06-08T12:54:10.163Z,3000
2017-06-08T12:55:10.176Z,3000
2017-06-08T12:56:09.225Z,3000
2017-06-08T12:57:09.849Z,2992
2017-06-08T12:58:09.521Z,2992
2017-06-08T12:59:09.537Z,2988
2017-06-08T13:00:09.873Z,2984
2017-06-08T13:01:10.172Z,2980
2017-06-08T13:02:09.518Z,2968
2017-06-08T13:03:09.520Z,2944
2017-06-08T13:04:09.983Z,2920
2017-06-08T13:05:09.522Z,2904
2017-06-08T13:06:09.518Z,2872
2017-06-08T13:07:09.868Z,2892
2017-06-08T13:08:09.838Z,2928
2017-06-08T13:09:09.838Z,2912
2017-06-08T13:10:09.866Z,2896
2017-06-08T13:11:09.846Z,2872
2017-06-08T13:12:10.185Z,2852
2017-06-08T13:13:09.529Z,2816
2017-06-08T13:14:09.853Z,2788
2017-06-08T13:15:10.180Z,2764
2017-06-08T13:16:10.204Z,2756
2017-06-08T13:17:10.162Z,2756
2017-06-08T13:18:09.841Z,2752
2017-06-08T13:19:10.179Z,2764
2017-06-08T13:20:09.511Z,2768
2017-06-08T13:21:09.851Z,2772
2017-06-08T13:22:09.528Z,2784
2017-06-08T13:23:09.515Z,2788
2017-06-08T13:24:09.511Z,2784
2017-06-08T13:25:10.196Z,2784
2017-06-08T13:26:09.851Z,2772
2017-06-08T13:27:12.205Z,2760